AirNav   Everest Fuels
 
 402 users online  

0MS7 Addison-Henley Field Airport
Pass Christian, Mississippi, USA

GOING TO PASS CHRISTIAN?


FAA INFORMATION EFFECTIVE 22 APRIL 2021

Location

FAA Identifier: 0MS7
Lat/Long: 30-24-07.6600N 089-19-31.2900W
30-24.127667N 089-19.521500W
30.4021278,-89.3253583
(estimated)
Elevation: 54 ft. / 16 m (estimated)
Variation: 01W ()
From city: 5 miles E of PASS CHRISTIAN, MS
Time zone: UTC -5 (UTC -6 during Standard Time)
Zip code: 39525

Airport Operations

Airport use: Private use. Permission required prior to landing
Activation date: 10/2015
Control tower: no
ARTCC: HOUSTON CENTER
FSS: JACKSON FLIGHT SERVICE STATION
Attendance: 
Wind indicator: yes
Segmented circle: no

Airport Communications

WX AWOS-3PT at HSA (7 nm W): 118.375 (228-466-9320)
WX ASOS at GPT (13 nm E): 119.45 (228-867-9937)
WX AWOS-3PT at MJD (18 nm W): 119.075 (601 798 4136)

Nearby radio navigation aids

VOR radial/distance  VOR name  Freq  Var
GPTr267/12.9GULFPORT VORTAC109.0002E
PCUr109/23.0PICAYUNE VOR/DME114.1505E

 
NDB name  Hdg/Dist  Freq  Var  ID
HANCO116/7.422102WHS .... ...
BAYOU241/9.836002WGP --. .--.
BOGALUSA136/39.935300WGVB --. ...- -...

Airport Services

Runway Information

Runway 18/36

Dimensions: 3300 x 100 ft. / 1006 x 30 m
Surface: turf, in fair condition
Runway edge lights: medium intensity
RUNWAY 18  RUNWAY 36
Traffic pattern: leftleft
Runway heading: 181 magnetic, 180 true001 magnetic, 360 true

Airport Ownership and Management from official FAA records

Ownership: Privately-owned
Owner: JAMES KNOWLES
12441 LISA DR
GULFPORT, MS 39503
Manager: JAMES KNOWLES
12441 LISA DR
GULFPORT, MS 39503

Airport Operational Statistics

Aircraft based on the field: 41
Single engine airplanes: 40
Multi engine airplanes: 1
    

Additional Remarks

FOR CD CTC GULFPORT APCH AT 228-265-6151, WHEN APCH CLSD CTC HOUSTON ARTCC AT 281-230-5622.

Instrument Procedures

There are no published instrument procedures at 0MS7.

Some nearby airports with instrument procedures:

KHSA - Stennis International Airport (7 nm W)
KGPT - Gulfport-Biloxi International Airport (13 nm E)
KMJD - Picayune Municipal Airport (18 nm W)
KBIX - Keesler Air Force Base (21 nm E)
M13 - Poplarville-Pearl River County Airport (25 nm N)
 
Loc | Ops | Rwys | IFR | FBO | Links
Com | Nav | Svcs | Stats | Notes
Aerial photo
No photo
 
Airport distance calculator
Flying to Addison-Henley Field Airport? Find the distance to fly.

From to 0MS7

Sunrise and sunset
Times for 11-May-2021
 Local
(UTC-5)
 Zulu
(UTC)
Morning civil twilight05:4110:41
Sunrise06:0711:07
Sunset19:4100:41
Evening civil twilight20:0701:07

Current date and time
Zulu (UTC)  11-May-2021 07:00:55
Local (UTC-5)  11-May-2021 02:00:55
 
METAR
KHSA 
7nm W 
110050Z 00000KT 7SM SCT090 23/21 A3000
KGPT 
13nm E 
110653Z AUTO 00000KT 10SM BKN020 21/20 A2999 RMK AO2 SLP156 T02110200
KMJD 
18nm W 
110635Z AUTO 00000KT 1 1/2SM VV007 20/19 A3001 RMK AO2
TAF
KGPT 
13nm E 
110521Z 1106/1206 VRB03KT P6SM SCT020 FM110900 VRB03KT 6SM BR BKN008 FM111500 13005KT P6SM VCTS BKN020CB FM112100 16008KT P6SM -SHRA VCTS BKN020CB
NOTAMs
Click for the latest NOTAMs
NOTAMs are issued by the DoD/FAA and will open in a separate window not controlled by AirNav.

 

 
 

Would you like to see your business listed on this page?

 If your business provides an interesting product or service to pilots, flight crews, aircraft, or users of the Addison-Henley Field Airport, you should consider listing it here.  To start the listing process, click on the button below
 
Add a business
 

Other Pages about Addison-Henley Field Airport

Update a link
 
Copyright © AirNav, LLC. All rights reserved. Privacy Policy  Contact